createdAt,value
2023-01-19T00:00:24.856Z,12.15
2023-01-19T00:05:27.098Z,12.93
2023-01-19T00:10:29.305Z,12.00
2023-01-19T00:15:32.987Z,12.85
2023-01-19T00:20:35.268Z,11.60
2023-01-19T00:25:38.577Z,10.73
2023-01-19T00:30:43.260Z,11.83
2023-01-19T00:35:50.579Z,11.70
2023-01-19T00:40:53.015Z,10.18
2023-01-19T00:45:56.650Z,11.50
2023-01-19T00:50:59.039Z,9.88
2023-01-19T00:56:01.233Z,10.60
2023-01-19T01:01:05.257Z,10.10
2023-01-19T01:06:07.581Z,11.18
2023-01-19T01:11:09.765Z,11.73
2023-01-19T01:16:15.432Z,11.23
2023-01-19T01:21:17.601Z,10.03
2023-01-19T01:26:19.815Z,11.98
2023-01-19T01:31:23.493Z,11.95
2023-01-19T01:36:25.894Z,11.20
2023-01-19T01:41:28.042Z,11.93
2023-01-19T01:46:33.203Z,12.47
2023-01-19T01:51:42.308Z,11.10
2023-01-19T01:56:47.759Z,11.07
2023-01-19T02:01:52.222Z,12.40
2023-01-19T02:06:54.439Z,12.90
2023-01-19T02:11:57.269Z,12.17
2023-01-19T02:17:01.313Z,11.32
2023-01-19T02:22:12.761Z,12.20
2023-01-19T02:27:17.302Z,11.33
2023-01-19T02:32:19.594Z,10.75
2023-01-19T02:37:22.300Z,11.37
2023-01-19T02:42:32.280Z,13.45
2023-01-19T02:47:39.350Z,11.82
2023-01-19T02:52:41.631Z,12.47
2023-01-19T02:57:58.415Z,12.40
2023-01-19T03:03:20.596Z,13.37
2023-01-19T03:08:42.267Z,11.38
2023-01-19T03:13:52.877Z,12.43
2023-01-19T03:19:02.964Z,12.77
2023-01-19T03:24:09.734Z,12.02
2023-01-19T03:29:17.097Z,13.73
2023-01-19T03:34:21.524Z,11.95
2023-01-19T03:39:26.637Z,13.57
2023-01-19T03:44:34.784Z,11.97
2023-01-19T03:49:40.289Z,12.48
2023-01-19T03:54:42.931Z,12.40
2023-01-19T03:59:46.407Z,14.30
2023-01-19T04:04:48.548Z,14.80
2023-01-19T04:09:50.701Z,16.33
2023-01-19T04:14:54.486Z,16.85
2023-01-19T04:19:56.677Z,15.13
2023-01-19T04:24:58.979Z,16.55
2023-01-19T04:30:04.365Z,16.67
2023-01-19T04:35:07.127Z,14.80
2023-01-19T04:40:11.214Z,16.73
2023-01-19T04:45:15.388Z,16.67
2023-01-19T04:50:17.792Z,17.02
2023-01-19T04:55:19.954Z,17.52
2023-01-19T05:00:23.836Z,17.67
2023-01-19T05:05:25.962Z,16.35
2023-01-19T05:10:28.307Z,16.33
2023-01-19T05:15:32.005Z,12.40
2023-01-19T05:20:34.302Z,9.85
2023-01-19T05:25:36.544Z,10.43
2023-01-19T05:30:40.290Z,9.82
2023-01-19T05:35:42.574Z,10.53
2023-01-19T05:40:44.932Z,9.70
2023-01-19T05:45:48.628Z,9.80
2023-01-19T05:50:51.588Z,12.13
2023-01-19T05:55:54.538Z,11.57
2023-01-19T06:01:03.782Z,13.93
2023-01-19T06:06:07.221Z,15.52
2023-01-19T06:11:09.739Z,14.20
2023-01-19T06:16:13.616Z,13.40
2023-01-19T06:21:16.182Z,12.90
2023-01-19T06:26:18.721Z,12.77
2023-01-19T06:31:22.920Z,13.23
2023-01-19T06:36:25.627Z,12.93
2023-01-19T06:41:28.239Z,14.63
2023-01-19T06:46:32.494Z,14.93
2023-01-19T06:51:36.197Z,16.20
2023-01-19T06:56:44.548Z,23.02
2023-01-19T07:02:27.715Z,23.25
2023-01-19T07:07:30.489Z,28.10
2023-01-19T07:12:34.755Z,34.05
2023-01-19T07:17:39.341Z,46.47
2023-01-19T07:22:42.807Z,70.53
2023-01-19T07:27:46.076Z,38.72
2023-01-19T07:33:12.330Z,22.67
2023-01-19T07:38:18.869Z,17.77
2023-01-19T07:43:21.347Z,17.70
2023-01-19T07:48:27.868Z,18.70
2023-01-19T07:53:34.591Z,16.65
2023-01-19T07:58:38.821Z,15.53
2023-01-19T08:03:43.069Z,16.83
2023-01-19T08:08:52.542Z,15.80
2023-01-19T08:14:08.020Z,15.80
2023-01-19T08:19:41.519Z,13.82
2023-01-19T08:24:45.443Z,15.10
2023-01-19T08:29:49.635Z,15.43
2023-01-19T08:34:58.729Z,18.07
2023-01-19T08:40:16.601Z,15.35
2023-01-19T08:45:20.121Z,19.15
2023-01-19T08:50:27.856Z,18.10
2023-01-19T08:55:30.716Z,17.58
2023-01-19T09:00:35.178Z,16.53
2023-01-19T09:05:46.399Z,15.48
2023-01-19T09:10:53.217Z,17.40
2023-01-19T09:15:56.469Z,16.77
2023-01-19T09:21:02.423Z,21.50
2023-01-19T09:26:10.706Z,24.87
2023-01-19T09:31:21.146Z,29.13
2023-01-19T09:36:29.805Z,30.65
2023-01-19T09:41:36.641Z,25.73
2023-01-19T09:46:43.075Z,28.48
2023-01-19T09:52:25.347Z,23.50
2023-01-19T09:57:46.717Z,27.48
2023-01-19T10:02:58.300Z,26.02
2023-01-19T10:08:41.473Z,23.73
2023-01-19T10:13:55.539Z,27.08
2023-01-19T10:19:26.683Z,24.97
2023-01-19T10:24:47.712Z,22.58
2023-01-19T10:30:24.332Z,22.58
2023-01-19T10:35:29.668Z,24.40
2023-01-19T10:40:54.820Z,32.83
2023-01-19T10:46:01.573Z,27.93
2023-01-19T10:51:10.298Z,25.60
2023-01-19T10:56:21.881Z,30.65
2023-01-19T11:01:28.323Z,29.37
2023-01-19T11:06:33.308Z,31.80
2023-01-19T11:11:52.224Z,30.00
2023-01-19T11:17:17.137Z,28.77
2023-01-19T11:22:30.409Z,28.30
2023-01-19T11:27:52.197Z,30.17
2023-01-19T11:32:55.395Z,32.85
2023-01-19T11:38:21.573Z,27.73
2023-01-19T11:43:43.475Z,27.83
2023-01-19T11:49:04.640Z,25.88
2023-01-19T11:54:21.544Z,24.50
2023-01-19T11:59:26.827Z,25.23
2023-01-19T12:04:39.803Z,25.40
2023-01-19T12:09:51.208Z,27.45
2023-01-19T12:15:01.523Z,25.08
2023-01-19T12:20:28.575Z,26.63
2023-01-19T12:25:54.948Z,27.98
2023-01-19T12:31:17.150Z,30.60
2023-01-19T12:36:38.452Z,28.13
2023-01-19T12:41:58.340Z,33.05
2023-01-19T12:47:20.504Z,30.63
2023-01-19T12:52:29.546Z,31.25
2023-01-19T12:57:40.868Z,36.23
2023-01-19T13:02:46.877Z,34.30
2023-01-19T13:08:22.851Z,32.72
2023-01-19T13:13:31.586Z,34.13
2023-01-19T13:18:57.159Z,33.45
2023-01-19T13:24:25.176Z,40.07
2023-01-19T13:29:32.917Z,32.13
2023-01-19T13:34:46.715Z,31.95
2023-01-19T13:40:03.831Z,34.00
2023-01-19T13:45:31.474Z,29.60
2023-01-19T13:50:45.731Z,29.20
2023-01-19T13:56:07.168Z,27.67
2023-01-19T14:01:23.843Z,27.27
2023-01-19T14:07:31.111Z,27.03
2023-01-19T14:13:00.272Z,28.30
2023-01-19T14:18:12.026Z,28.00
2023-01-19T14:23:45.819Z,28.08
2023-01-19T14:28:53.283Z,29.10
2023-01-19T14:33:57.031Z,26.83
2023-01-19T14:39:16.620Z,24.92
2023-01-19T14:44:32.013Z,29.83
2023-01-19T14:49:38.862Z,26.38
2023-01-19T14:54:51.487Z,25.58
2023-01-19T14:59:55.377Z,25.43
2023-01-19T15:05:02.576Z,25.25
2023-01-19T15:10:17.541Z,24.23
2023-01-19T15:15:26.803Z,24.58
2023-01-19T15:20:29.920Z,24.73
2023-01-19T15:25:35.267Z,23.73
2023-01-19T15:30:39.551Z,22.98
2023-01-19T15:35:43.363Z,23.50
2023-01-19T15:40:51.396Z,23.10
2023-01-19T15:46:00.733Z,24.40
2023-01-19T15:51:03.571Z,24.87
2023-01-19T15:56:15.587Z,26.05
2023-01-19T16:01:20.818Z,26.67
2023-01-19T16:06:23.419Z,25.90
2023-01-19T16:11:28.701Z,26.10
2023-01-19T16:16:31.488Z,27.13
2023-01-19T16:21:34.099Z,28.77
2023-01-19T16:26:37.740Z,25.33
2023-01-19T16:31:42.495Z,24.67
2023-01-19T16:36:45.245Z,24.55
2023-01-19T16:41:49.293Z,26.87
2023-01-19T16:46:51.907Z,29.85
2023-01-19T16:51:54.657Z,27.97
2023-01-19T16:56:59.097Z,26.52
2023-01-19T17:02:01.899Z,27.42
2023-01-19T17:07:04.405Z,25.87
2023-01-19T17:12:08.247Z,25.73
2023-01-19T17:17:10.799Z,26.83
2023-01-19T17:22:13.949Z,24.90
2023-01-19T17:27:20.807Z,25.33
2023-01-19T17:32:23.392Z,21.73
2023-01-19T17:37:26.172Z,24.42
2023-01-19T17:42:30.348Z,24.97
2023-01-19T17:47:34.461Z,26.00
2023-01-19T17:52:36.914Z,26.27
2023-01-19T17:57:40.858Z,26.97
2023-01-19T18:02:43.091Z,25.17
2023-01-19T18:07:45.665Z,25.77
2023-01-19T18:12:49.240Z,23.50
2023-01-19T18:17:51.437Z,25.85
2023-01-19T18:22:53.604Z,25.10
2023-01-19T18:27:57.155Z,24.52
2023-01-19T18:32:59.380Z,28.47
2023-01-19T18:38:01.596Z,27.40
2023-01-19T18:43:05.172Z,23.98
2023-01-19T18:48:07.892Z,23.70
2023-01-19T18:53:10.136Z,27.13
2023-01-19T18:58:13.745Z,25.47
2023-01-19T19:03:16.751Z,26.10
2023-01-19T19:08:18.994Z,27.45
2023-01-19T19:13:22.680Z,29.97
2023-01-19T19:18:24.985Z,29.05
2023-01-19T19:23:27.365Z,31.00
2023-01-19T19:28:31.131Z,28.23
2023-01-19T19:33:34.232Z,28.70
2023-01-19T19:38:37.107Z,33.57
2023-01-19T19:43:42.161Z,36.45
2023-01-19T19:48:48.157Z,35.07
2023-01-19T19:53:51.893Z,32.33
2023-01-19T19:58:58.366Z,31.63
2023-01-19T20:04:08.248Z,31.47
2023-01-19T20:09:12.448Z,28.63
2023-01-19T20:14:16.539Z,30.13
2023-01-19T20:19:18.897Z,29.20
2023-01-19T20:24:22.346Z,27.15
2023-01-19T20:29:25.871Z,24.43
2023-01-19T20:34:33.368Z,23.80
2023-01-19T20:39:36.379Z,25.30
2023-01-19T20:44:40.362Z,23.23
2023-01-19T20:49:42.715Z,22.27
2023-01-19T20:54:45.449Z,22.37
2023-01-19T20:59:49.615Z,21.00
2023-01-19T21:04:51.976Z,18.53
2023-01-19T21:09:54.307Z,15.95
2023-01-19T21:14:57.835Z,23.80
2023-01-19T21:20:00.050Z,23.20
2023-01-19T21:25:02.228Z,24.10
2023-01-19T21:30:07.534Z,21.50
2023-01-19T21:35:10.834Z,20.65
2023-01-19T21:40:14.011Z,22.27
2023-01-19T21:45:17.749Z,21.83
2023-01-19T21:50:19.912Z,20.27
2023-01-19T21:55:22.073Z,20.33
2023-01-19T22:00:25.832Z,19.77
2023-01-19T22:05:28.028Z,21.02
2023-01-19T22:10:30.291Z,22.13
2023-01-19T22:15:34.037Z,20.23
2023-01-19T22:20:36.562Z,19.80
2023-01-19T22:25:38.801Z,19.85
2023-01-19T22:30:42.397Z,22.15
2023-01-19T22:35:44.710Z,22.90
2023-01-19T22:40:46.876Z,22.55
2023-01-19T22:45:50.564Z,24.27
2023-01-19T22:50:56.091Z,23.27
2023-01-19T22:55:58.271Z,25.23
2023-01-19T23:01:06.897Z,26.37
2023-01-19T23:06:11.726Z,24.48
2023-01-19T23:11:16.541Z,23.23
2023-01-19T23:16:21.397Z,23.60
2023-01-19T23:21:26.132Z,26.90
2023-01-19T23:26:30.034Z,22.27
2023-01-19T23:31:36.769Z,20.33
2023-01-19T23:36:41.207Z,18.70
2023-01-19T23:41:43.797Z,16.70
2023-01-19T23:46:47.453Z,13.73
2023-01-19T23:51:49.614Z,13.37
2023-01-19T23:56:51.872Z,15.05
